createdAt,value
2019-05-09T00:00:04.154Z,90.52
2019-05-09T00:01:04.177Z,91.35
2019-05-09T00:02:04.108Z,91.14
2019-05-09T00:03:04.081Z,91.18
2019-05-09T00:04:04.069Z,91.69
2019-05-09T00:05:04.059Z,91.59
2019-05-09T00:06:04.714Z,92.31
2019-05-09T00:07:04.113Z,92.82
2019-05-09T00:08:04.026Z,92.61
2019-05-09T00:09:04.015Z,92.82
2019-05-09T00:10:04.252Z,92.61
2019-05-09T00:11:03.991Z,93.13
2019-05-09T00:12:03.979Z,92.21
2019-05-09T00:13:04.040Z,91.90
2019-05-09T00:14:04.565Z,91.90
2019-05-09T00:15:04.651Z,91.69
2019-05-09T00:16:03.958Z,91.90
2019-05-09T00:17:03.983Z,91.69
2019-05-09T00:18:04.136Z,91.59
2019-05-09T00:19:03.974Z,91.69
2019-05-09T00:20:03.892Z,91.59
2019-05-09T00:21:04.218Z,92.00
2019-05-09T00:22:03.863Z,91.69
2019-05-09T00:23:03.853Z,92.04
2019-05-09T00:24:03.844Z,91.94
2019-05-09T00:25:03.921Z,91.22
2019-05-09T00:26:04.290Z,91.02
2019-05-09T00:27:04.035Z,91.42
2019-05-09T00:28:04.217Z,92.04
2019-05-09T00:29:03.943Z,91.84
2019-05-09T00:30:03.977Z,91.88
2019-05-09T00:31:03.840Z,92.50
2019-05-09T00:32:03.747Z,92.50
2019-05-09T00:33:03.882Z,92.95
2019-05-09T00:34:04.282Z,92.85
2019-05-09T00:35:04.066Z,93.26
2019-05-09T00:36:04.343Z,93.77
2019-05-09T00:37:03.764Z,93.87
2019-05-09T00:38:04.445Z,93.36
2019-05-09T00:39:04.143Z,93.36
2019-05-09T00:40:04.083Z,92.95
2019-05-09T00:41:03.903Z,92.64
2019-05-09T00:42:04.377Z,92.40
2019-05-09T00:43:04.108Z,91.93
2019-05-09T00:44:03.611Z,91.99
2019-05-09T00:45:04.227Z,92.13
2019-05-09T00:46:04.378Z,91.82
2019-05-09T00:47:04.245Z,91.82
2019-05-09T00:48:03.602Z,91.31
2019-05-09T00:49:05.047Z,90.69
2019-05-09T00:50:05.189Z,90.55
2019-05-09T00:51:03.655Z,90.89
2019-05-09T00:52:03.740Z,90.59
2019-05-09T00:53:03.515Z,90.89
2019-05-09T00:54:04.213Z,91.41
2019-05-09T00:55:03.991Z,91.00
2019-05-09T00:56:04.104Z,90.80
2019-05-09T00:57:03.467Z,90.48
2019-05-09T00:58:04.190Z,90.94
2019-05-09T00:59:04.234Z,90.94
2019-05-09T01:00:04.017Z,91.08
2019-05-09T01:01:04.292Z,91.91
2019-05-09T01:02:04.070Z,91.85
2019-05-09T01:03:03.685Z,92.01
2019-05-09T01:04:04.369Z,92.83
2019-05-09T01:05:04.230Z,93.35
2019-05-09T01:06:04.301Z,94.83
2019-05-09T01:07:03.702Z,93.35
2019-05-09T01:08:04.196Z,94.17
2019-05-09T01:09:04.176Z,93.51
2019-05-09T01:10:04.239Z,93.05
2019-05-09T01:11:11.686Z,91.93
2019-05-09T01:12:04.367Z,91.10
2019-05-09T01:13:03.727Z,91.51
2019-05-09T01:14:03.721Z,91.20
2019-05-09T01:15:03.526Z,91.93
2019-05-09T01:16:04.481Z,91.82
2019-05-09T01:17:04.233Z,92.33
2019-05-09T01:18:04.370Z,91.78
2019-05-09T01:19:03.710Z,91.72
2019-05-09T01:20:03.595Z,91.06
2019-05-09T01:21:03.984Z,90.80
2019-05-09T01:22:04.016Z,90.95
2019-05-09T01:23:03.556Z,91.10
2019-05-09T01:24:03.546Z,91.31
2019-05-09T01:26:13.489Z,91.27
2019-05-09T01:27:14.206Z,90.24
2019-05-09T01:28:13.967Z,90.03
2019-05-09T01:29:13.802Z,89.83
2019-05-09T01:30:13.523Z,89.83
2019-05-09T01:31:13.255Z,90.20
2019-05-09T01:32:14.411Z,90.95
2019-05-09T01:33:13.592Z,91.78
2019-05-09T01:34:13.330Z,91.84
2019-05-09T01:35:13.182Z,91.74
2019-05-09T01:36:14.375Z,91.53
2019-05-09T01:37:14.071Z,91.08
2019-05-09T01:38:14.194Z,90.87
2019-05-09T01:39:13.795Z,89.50
2019-05-09T01:40:13.229Z,88.88
2019-05-09T01:41:26.264Z,89.04
2019-05-09T01:42:13.764Z,89.00
2019-05-09T01:43:13.853Z,89.25
2019-05-09T01:44:13.413Z,89.87
2019-05-09T01:45:14.132Z,89.66
2019-05-09T01:46:14.277Z,89.76
2019-05-09T01:47:14.098Z,89.66
2019-05-09T01:48:13.945Z,89.90
2019-05-09T01:49:13.814Z,89.70
2019-05-09T01:50:14.027Z,89.90
2019-05-09T01:51:13.897Z,90.22
2019-05-09T01:52:13.776Z,90.67
2019-05-09T01:53:13.376Z,90.87
2019-05-09T01:54:13.266Z,91.90
2019-05-09T01:55:14.119Z,92.04
2019-05-09T01:56:13.996Z,91.84
2019-05-09T01:57:13.846Z,92.14
2019-05-09T01:58:13.883Z,92.97
2019-05-09T01:59:13.701Z,92.97
2019-05-09T02:00:13.237Z,92.86
2019-05-09T02:01:13.401Z,92.40
2019-05-09T02:02:14.108Z,92.60
2019-05-09T02:03:13.940Z,92.35
2019-05-09T02:04:13.683Z,92.50
2019-05-09T02:05:13.468Z,93.01
2019-05-09T02:06:13.627Z,93.21
2019-05-09T02:07:13.273Z,93.32
2019-05-09T02:08:14.065Z,93.21
2019-05-09T02:09:14.070Z,93.21
2019-05-09T02:10:13.931Z,93.32
2019-05-09T02:11:13.256Z,93.12
2019-05-09T02:12:13.960Z,92.91
2019-05-09T02:13:13.653Z,93.05
2019-05-09T02:14:13.496Z,93.16
2019-05-09T02:15:13.066Z,93.01
2019-05-09T02:16:13.994Z,93.57
2019-05-09T02:17:13.990Z,94.29
2019-05-09T02:18:13.739Z,93.87
2019-05-09T02:19:13.603Z,93.05
2019-05-09T02:20:13.666Z,93.16
2019-05-09T02:21:14.450Z,93.46
2019-05-09T02:22:13.086Z,92.60
2019-05-09T02:23:13.883Z,92.95
2019-05-09T02:24:13.892Z,92.74
2019-05-09T02:25:13.676Z,92.95
2019-05-09T02:26:13.625Z,92.13
2019-05-09T02:27:13.243Z,92.44
2019-05-09T02:28:14.040Z,93.05
2019-05-09T02:29:13.807Z,92.89
2019-05-09T02:30:15.135Z,93.20
2019-05-09T02:31:15.700Z,92.69
2019-05-09T02:32:14.170Z,92.89
2019-05-09T02:33:14.507Z,92.69
2019-05-09T02:34:14.931Z,92.89
2019-05-09T02:35:11.768Z,92.69
2019-05-09T02:36:11.688Z,91.76
2019-05-09T02:37:11.677Z,91.20
2019-05-09T02:38:11.671Z,91.51
2019-05-09T02:39:11.657Z,91.10
2019-05-09T02:40:11.647Z,90.80
2019-05-09T02:41:11.707Z,90.38
2019-05-09T02:42:14.226Z,90.38
2019-05-09T02:43:11.615Z,90.18
2019-05-09T02:44:11.604Z,90.48
2019-05-09T02:45:11.590Z,89.87
2019-05-09T02:46:11.589Z,89.66
2019-05-09T02:47:11.644Z,90.38
2019-05-09T02:48:11.558Z,89.87
2019-05-09T02:49:11.547Z,90.08
2019-05-09T02:50:11.539Z,90.08
2019-05-09T02:51:11.522Z,90.03
2019-05-09T02:52:11.512Z,89.62
2019-05-09T02:53:11.565Z,89.17
2019-05-09T02:54:11.492Z,88.76
2019-05-09T02:55:11.476Z,88.35
2019-05-09T02:56:11.466Z,88.45
2019-05-09T02:57:11.459Z,88.86
2019-05-09T02:58:11.450Z,88.04
2019-05-09T02:59:11.492Z,87.94
2019-05-09T03:00:11.431Z,87.94
2019-05-09T03:01:11.409Z,87.43
2019-05-09T03:02:11.400Z,87.63
2019-05-09T03:03:11.389Z,88.76
2019-05-09T03:04:11.375Z,88.35
2019-05-09T03:05:11.444Z,88.76
2019-05-09T03:06:11.354Z,89.01
2019-05-09T03:07:11.349Z,89.62
2019-05-09T03:08:11.335Z,89.11
2019-05-09T03:09:11.323Z,90.34
2019-05-09T03:10:11.309Z,89.66
2019-05-09T03:11:11.365Z,90.08
2019-05-09T03:12:26.529Z,89.97
2019-05-09T03:13:12.273Z,90.73
2019-05-09T03:14:11.272Z,90.94
2019-05-09T03:15:11.254Z,90.73
2019-05-09T03:16:11.244Z,90.83
2019-05-09T03:17:11.293Z,90.94
2019-05-09T03:18:11.219Z,91.60
2019-05-09T03:19:11.211Z,91.19
2019-05-09T03:20:11.198Z,91.39
2019-05-09T03:21:11.186Z,91.39
2019-05-09T03:22:11.174Z,91.80
2019-05-09T03:23:11.249Z,91.91
2019-05-09T03:24:11.161Z,92.32
2019-05-09T03:25:11.144Z,91.39
2019-05-09T03:26:11.137Z,91.60
2019-05-09T03:27:11.130Z,91.19
2019-05-09T03:28:11.106Z,90.36
2019-05-09T03:29:11.159Z,89.85
2019-05-09T03:30:12.267Z,89.75
2019-05-09T03:31:11.086Z,90.16
2019-05-09T03:32:11.072Z,90.51
2019-05-09T03:33:11.054Z,89.89
2019-05-09T03:34:11.045Z,90.61
2019-05-09T03:35:11.114Z,90.67
2019-05-09T03:36:11.019Z,90.16
2019-05-09T03:37:11.006Z,89.75
2019-05-09T03:38:10.996Z,89.95
2019-05-09T03:39:10.990Z,89.85
2019-05-09T03:40:10.975Z,90.06
2019-05-09T03:41:11.040Z,89.64
2019-05-09T03:42:10.950Z,89.64
2019-05-09T03:43:10.939Z,89.54
2019-05-09T03:44:10.932Z,89.54
2019-05-09T03:45:10.917Z,89.64
2019-05-09T03:46:10.903Z,89.75
2019-05-09T03:47:10.966Z,89.54
2019-05-09T03:48:10.882Z,89.64
2019-05-09T03:49:10.877Z,89.09
2019-05-09T03:50:10.861Z,89.09
2019-05-09T03:51:10.855Z,88.98
2019-05-09T03:52:10.837Z,89.40
2019-05-09T03:53:10.891Z,88.78
2019-05-09T03:54:10.815Z,88.89
2019-05-09T03:55:10.804Z,88.89
2019-05-09T03:56:10.793Z,88.78
2019-05-09T03:57:10.780Z,88.68
2019-05-09T03:58:10.769Z,88.98
2019-05-09T03:59:10.831Z,88.78
2019-05-09T04:00:10.747Z,88.68
2019-05-09T04:01:11.043Z,88.92
2019-05-09T04:02:10.730Z,89.54
2019-05-09T04:03:10.717Z,88.96
2019-05-09T04:04:10.703Z,89.34
2019-05-09T04:05:10.759Z,89.13
2019-05-09T04:06:10.677Z,89.17
2019-05-09T04:07:10.672Z,89.28
2019-05-09T04:08:10.656Z,89.42
2019-05-09T04:09:10.644Z,89.22
2019-05-09T04:10:10.635Z,89.67
2019-05-09T04:11:10.694Z,90.08
2019-05-09T04:12:10.612Z,90.12
2019-05-09T04:13:11.125Z,90.84
2019-05-09T04:14:10.592Z,91.19
2019-05-09T04:15:10.582Z,91.40
2019-05-09T04:16:10.565Z,91.60
2019-05-09T04:17:10.626Z,92.02
2019-05-09T04:18:10.545Z,92.16
2019-05-09T04:19:10.533Z,93.40
2019-05-09T04:20:10.529Z,93.30
2019-05-09T04:21:10.509Z,92.47
2019-05-09T04:22:10.497Z,92.93
2019-05-09T04:23:10.567Z,93.03
2019-05-09T04:24:10.477Z,93.75
2019-05-09T04:25:10.462Z,93.54
2019-05-09T04:26:10.457Z,93.54
2019-05-09T04:27:10.447Z,93.44
2019-05-09T04:28:10.431Z,93.24
2019-05-09T04:29:10.480Z,93.44
2019-05-09T04:30:10.409Z,93.54
2019-05-09T04:31:10.407Z,92.31
2019-05-09T04:32:10.387Z,92.37
2019-05-09T04:33:10.372Z,92.37
2019-05-09T04:34:10.362Z,92.88
2019-05-09T04:35:10.423Z,92.47
2019-05-09T04:36:10.341Z,92.27
2019-05-09T04:37:12.318Z,92.43
2019-05-09T04:38:10.320Z,91.81
2019-05-09T04:39:12.764Z,91.81
2019-05-09T04:40:11.370Z,92.22
2019-05-09T04:41:10.284Z,92.43
2019-05-09T04:42:10.270Z,92.12
2019-05-09T04:43:16.607Z,92.22
2019-05-09T04:44:16.835Z,92.29
2019-05-09T04:45:11.235Z,92.18
2019-05-09T04:46:13.011Z,92.38
2019-05-09T04:47:11.216Z,92.69
2019-05-09T04:48:13.244Z,92.24
2019-05-09T04:49:11.195Z,92.24
2019-05-09T04:50:10.183Z,92.14
2019-05-09T04:51:10.169Z,90.96
2019-05-09T04:52:10.224Z,89.79
2019-05-09T04:53:10.148Z,90.41
2019-05-09T04:54:10.133Z,89.54
2019-05-09T04:55:10.126Z,90.57
2019-05-09T04:56:10.114Z,89.54
2019-05-09T04:57:10.106Z,88.57
2019-05-09T04:58:10.158Z,89.15
2019-05-09T04:59:10.075Z,88.74
2019-05-09T05:00:10.206Z,88.84
2019-05-09T05:01:10.061Z,88.80
2019-05-09T05:02:10.043Z,87.26
2019-05-09T05:03:10.034Z,87.67
2019-05-09T05:04:10.088Z,87.32
2019-05-09T05:05:10.011Z,87.43
2019-05-09T05:06:09.997Z,87.28
2019-05-09T05:07:09.995Z,86.77
2019-05-09T05:08:09.985Z,85.91
2019-05-09T05:09:09.969Z,84.37
2019-05-09T05:10:10.019Z,83.61
2019-05-09T05:11:09.942Z,85.09
2019-05-09T05:12:09.936Z,85.66
2019-05-09T05:13:23.072Z,85.05
2019-05-09T05:14:10.912Z,84.91
2019-05-09T05:15:09.910Z,85.11
2019-05-09T05:16:09.951Z,84.50
2019-05-09T05:17:11.333Z,84.91
2019-05-09T05:18:09.865Z,84.50
2019-05-09T05:19:09.853Z,85.72
2019-05-09T05:20:09.844Z,86.04
2019-05-09T05:21:09.832Z,85.42
2019-05-09T05:22:09.889Z,85.58
2019-05-09T05:23:09.808Z,83.74
2019-05-09T05:24:09.798Z,83.39
2019-05-09T05:25:09.791Z,82.98
2019-05-09T05:26:09.771Z,82.64
2019-05-09T05:27:09.767Z,81.72
2019-05-09T05:28:09.811Z,81.99
2019-05-09T05:29:09.737Z,82.20
2019-05-09T05:30:09.728Z,83.07
2019-05-09T05:31:09.718Z,80.83
2019-05-09T05:32:09.721Z,81.54
2019-05-09T05:33:09.720Z,79.77
2019-05-09T05:34:09.747Z,78.61
2019-05-09T05:35:09.675Z,78.81
2019-05-09T05:36:09.663Z,77.82
2019-05-09T05:37:09.647Z,76.59
2019-05-09T05:38:09.647Z,76.56
2019-05-09T05:39:09.634Z,76.22
2019-05-09T05:40:09.678Z,74.45
2019-05-09T05:41:09.603Z,73.47
2019-05-09T05:42:09.591Z,72.82
2019-05-09T05:43:09.584Z,71.67
2019-05-09T05:44:09.580Z,71.03
2019-05-09T05:45:10.545Z,70.08
2019-05-09T05:46:09.611Z,70.25
2019-05-09T05:47:09.536Z,68.12
2019-05-09T05:48:09.526Z,68.52
2019-05-09T05:49:09.514Z,67.91
2019-05-09T05:50:09.503Z,67.44
2019-05-09T05:51:09.491Z,68.70
2019-05-09T05:52:09.546Z,68.05
2019-05-09T05:53:09.468Z,67.14
2019-05-09T05:54:09.457Z,67.81
2019-05-09T05:55:09.444Z,68.49
2019-05-09T05:56:09.432Z,67.07
2019-05-09T05:57:09.423Z,68.35
2019-05-09T05:58:09.477Z,66.86
2019-05-09T05:59:09.401Z,68.08
2019-05-09T06:00:09.388Z,68.29
2019-05-09T06:01:09.377Z,68.26
2019-05-09T06:02:09.368Z,67.51
2019-05-09T06:03:09.359Z,66.91
2019-05-09T06:04:09.419Z,68.76
2019-05-09T06:05:09.335Z,67.03
2019-05-09T06:06:09.330Z,68.43
2019-05-09T06:07:09.347Z,66.88
2019-05-09T06:09:43.097Z,65.32
2019-05-09T06:10:19.067Z,65.22
2019-05-09T06:11:19.057Z,64.55
2019-05-09T06:12:19.046Z,64.12
2019-05-09T06:13:19.034Z,65.03
2019-05-09T06:14:19.020Z,63.05
2019-05-09T06:15:19.076Z,61.36
2019-05-09T06:16:22.187Z,62.77
2019-05-09T06:17:18.985Z,64.73
2019-05-09T06:18:18.976Z,64.76
2019-05-09T06:19:18.965Z,65.86
2019-05-09T06:20:18.953Z,64.78
2019-05-09T06:21:19.008Z,66.26
2019-05-09T06:22:18.932Z,67.17
2019-05-09T06:23:18.928Z,68.32
2019-05-09T06:24:18.907Z,67.71
2019-05-09T06:25:20.819Z,67.44
2019-05-09T06:26:19.045Z,66.96
2019-05-09T06:27:18.937Z,67.19
2019-05-09T06:28:18.868Z,68.52
2019-05-09T06:29:18.852Z,67.80
2019-05-09T06:30:18.841Z,68.01
2019-05-09T06:31:18.833Z,65.55
2019-05-09T06:32:19.063Z,63.93
2019-05-09T06:33:18.874Z,64.03
2019-05-09T06:34:19.093Z,64.97
2019-05-09T06:35:18.783Z,65.61
2019-05-09T06:36:19.019Z,65.74
2019-05-09T06:37:18.765Z,67.77
2019-05-09T06:38:18.973Z,67.13
2019-05-09T06:39:18.813Z,67.41
2019-05-09T06:40:21.399Z,64.50
2019-05-09T06:41:18.713Z,65.55
2019-05-09T06:42:18.795Z,64.30
2019-05-09T06:43:18.694Z,64.94
2019-05-09T06:44:20.734Z,67.44
2019-05-09T06:45:18.733Z,67.24
2019-05-09T06:46:18.684Z,67.44
2019-05-09T06:47:18.689Z,67.67
2019-05-09T06:48:18.633Z,68.99
2019-05-09T06:49:27.506Z,69.20
2019-05-09T06:50:19.677Z,67.33
2019-05-09T06:51:21.257Z,67.13
2019-05-09T06:52:18.590Z,67.22
2019-05-09T06:53:18.576Z,67.63
2019-05-09T06:54:18.566Z,68.27
2019-05-09T06:55:18.567Z,69.09
2019-05-09T06:56:18.605Z,69.19
2019-05-09T06:57:18.811Z,70.92
2019-05-09T06:58:18.532Z,71.02
2019-05-09T06:59:19.120Z,70.31
2019-05-09T07:00:18.497Z,69.49
2019-05-09T07:01:18.500Z,68.92
2019-05-09T07:02:18.542Z,69.32
2019-05-09T07:03:18.578Z,69.32
2019-05-09T07:04:18.469Z,69.53
2019-05-09T07:05:18.438Z,69.73
2019-05-09T07:06:18.431Z,70.65
2019-05-09T07:07:18.419Z,71.47
2019-05-09T07:08:18.472Z,71.06
2019-05-09T07:09:18.398Z,71.77
2019-05-09T07:10:18.390Z,71.36
2019-05-09T07:11:19.161Z,70.55
2019-05-09T07:12:18.359Z,70.24
2019-05-09T07:13:18.373Z,69.50
2019-05-09T07:14:28.362Z,67.97
2019-05-09T07:15:19.328Z,65.68
2019-05-09T07:16:18.800Z,63.66
2019-05-09T07:17:18.696Z,62.79
2019-05-09T07:18:18.425Z,62.56
2019-05-09T07:19:18.278Z,61.41
2019-05-09T07:20:18.443Z,60.05
2019-05-09T07:21:19.014Z,59.15
2019-05-09T07:22:18.629Z,58.72
2019-05-09T07:23:18.233Z,59.15
2019-05-09T07:24:18.555Z,59.61
2019-05-09T07:25:18.715Z,60.25
2019-05-09T07:26:18.265Z,58.63
2019-05-09T07:27:18.187Z,60.25
2019-05-09T07:28:18.177Z,60.71
2019-05-09T07:29:18.171Z,63.83
2019-05-09T07:30:18.166Z,62.78
2019-05-09T07:31:18.160Z,64.56
2019-05-09T07:32:18.288Z,63.39
2019-05-09T07:33:19.249Z,61.30
2019-05-09T07:34:18.527Z,59.92
2019-05-09T07:35:18.665Z,59.77
2019-05-09T07:36:18.894Z,59.92
2019-05-09T07:37:18.667Z,58.25
2019-05-09T07:38:18.142Z,56.78
2019-05-09T07:39:18.050Z,55.87
2019-05-09T07:40:18.347Z,56.18
2019-05-09T07:41:18.046Z,55.80
2019-05-09T07:42:18.203Z,55.85
2019-05-09T07:43:18.160Z,55.82
2019-05-09T07:44:18.414Z,56.02
2019-05-09T07:45:18.120Z,56.37
2019-05-09T07:46:17.975Z,57.62
2019-05-09T07:47:17.958Z,57.97
2019-05-09T07:48:18.148Z,56.05
2019-05-09T07:49:17.953Z,56.18
2019-05-09T07:50:18.907Z,55.62
2019-05-09T07:51:18.144Z,56.48
2019-05-09T07:52:18.553Z,55.11
2019-05-09T07:53:17.900Z,55.21
2019-05-09T07:54:24.846Z,55.16
2019-05-09T07:55:18.934Z,55.46
2019-05-09T07:56:18.647Z,54.96
2019-05-09T07:57:18.274Z,54.38
2019-05-09T07:58:18.661Z,55.44
2019-05-09T07:59:18.175Z,55.26
2019-05-09T08:00:18.398Z,54.05
2019-05-09T08:01:19.009Z,55.77
2019-05-09T08:02:17.806Z,56.58
2019-05-09T08:03:18.183Z,55.88
2019-05-09T08:04:18.344Z,58.06
2019-05-09T08:05:17.766Z,58.62
2019-05-09T08:06:18.502Z,60.24
2019-05-09T08:07:17.801Z,56.46
2019-05-09T08:08:18.567Z,55.44
2019-05-09T08:09:18.705Z,53.78
2019-05-09T08:10:17.696Z,54.36
2019-05-09T08:11:18.125Z,51.89
2019-05-09T08:12:18.079Z,51.66
2019-05-09T08:13:21.195Z,51.64
2019-05-09T08:14:17.842Z,52.04
2019-05-09T08:15:20.146Z,55.67
2019-05-09T08:16:18.663Z,56.20
2019-05-09T08:17:18.165Z,55.98
2019-05-09T08:18:17.616Z,57.68
2019-05-09T08:19:18.161Z,55.52
2019-05-09T08:20:17.659Z,57.60
2019-05-09T08:21:18.209Z,58.41
2019-05-09T08:22:24.592Z,55.14
2019-05-09T08:23:18.554Z,53.02
2019-05-09T08:24:18.343Z,55.29
2019-05-09T08:25:18.334Z,57.11
2019-05-09T08:26:18.880Z,55.69
2019-05-09T08:27:17.691Z,53.83
2019-05-09T08:28:19.937Z,55.27
2019-05-09T08:29:19.950Z,53.98
2019-05-09T08:30:18.101Z,52.72
2019-05-09T08:31:17.941Z,50.73
2019-05-09T08:32:18.124Z,50.81
2019-05-09T08:33:18.443Z,49.77
2019-05-09T08:34:18.697Z,51.23
2019-05-09T08:35:18.327Z,51.71
2019-05-09T08:36:18.030Z,55.41
2019-05-09T08:37:17.666Z,53.83
2019-05-09T08:38:17.965Z,55.24
2019-05-09T08:39:20.184Z,57.62
2019-05-09T08:40:18.356Z,57.04
2019-05-09T08:41:18.583Z,57.67
2019-05-09T08:42:17.999Z,53.80
2019-05-09T08:43:19.544Z,50.91
2019-05-09T08:44:18.643Z,50.23
2019-05-09T08:45:27.380Z,48.18
2019-05-09T08:46:18.418Z,47.30
2019-05-09T08:47:18.483Z,49.28
2019-05-09T08:48:18.391Z,49.26
2019-05-09T08:49:18.248Z,49.49
2019-05-09T08:50:17.676Z,45.64
2019-05-09T08:51:17.986Z,45.58
2019-05-09T08:52:19.790Z,46.75
2019-05-09T08:53:18.799Z,47.75
2019-05-09T08:54:18.421Z,48.75
2019-05-09T08:55:17.534Z,48.61
2019-05-09T08:56:17.813Z,46.66
2019-05-09T08:57:18.205Z,46.98
2019-05-09T08:58:19.556Z,50.61
2019-05-09T08:59:20.014Z,47.13
2019-05-09T09:00:18.877Z,47.46
2019-05-09T09:01:27.225Z,47.08
2019-05-09T09:02:21.864Z,48.86
2019-05-09T09:03:18.511Z,45.92
2019-05-09T09:04:18.927Z,45.96
2019-05-09T09:05:18.733Z,47.14
2019-05-09T09:06:18.340Z,46.70
2019-05-09T09:07:18.914Z,50.46
2019-05-09T09:08:18.310Z,50.10
2019-05-09T09:09:17.989Z,51.81
2019-05-09T09:10:18.629Z,53.85
2019-05-09T09:11:18.711Z,55.44
2019-05-09T09:12:27.310Z,55.14
2019-05-09T09:13:18.062Z,54.99
2019-05-09T09:14:18.474Z,55.77
2019-05-09T09:15:17.980Z,54.00
2019-05-09T09:16:21.550Z,54.81
2019-05-09T09:17:18.744Z,53.98
2019-05-09T09:18:17.951Z,53.47
2019-05-09T09:19:17.902Z,49.96
2019-05-09T09:20:18.217Z,48.51
2019-05-09T09:21:18.353Z,50.16
2019-05-09T09:22:18.014Z,48.70
2019-05-09T09:23:18.052Z,50.56
2019-05-09T09:24:17.715Z,50.09
2019-05-09T09:25:18.358Z,51.09
2019-05-09T09:26:18.382Z,49.98
2019-05-09T09:27:18.225Z,51.26
2019-05-09T09:28:18.256Z,51.91
2019-05-09T09:29:17.845Z,53.63
2019-05-09T09:30:24.170Z,52.44
2019-05-09T09:31:18.150Z,51.06
2019-05-09T09:32:18.911Z,52.04
2019-05-09T09:33:17.603Z,51.49
2019-05-09T09:34:18.122Z,50.68
2019-05-09T09:35:18.637Z,51.56
2019-05-09T09:36:17.849Z,49.18
2019-05-09T09:37:18.505Z,46.38
2019-05-09T09:38:17.691Z,43.62
2019-05-09T09:39:18.498Z,43.93
2019-05-09T09:40:17.666Z,42.03
2019-05-09T09:41:18.202Z,43.90
2019-05-09T09:42:19.962Z,45.34
2019-05-09T09:43:17.636Z,45.39
2019-05-09T09:44:18.242Z,46.39
2019-05-09T09:45:18.407Z,43.43
2019-05-09T09:46:18.170Z,44.07
2019-05-09T09:47:22.795Z,41.74
2019-05-09T09:48:18.195Z,41.47
2019-05-09T09:49:18.083Z,41.31
2019-05-09T09:50:17.756Z,43.98
2019-05-09T09:51:18.566Z,47.12
2019-05-09T09:52:18.764Z,49.57
2019-05-09T09:53:18.469Z,48.43
2019-05-09T09:54:18.817Z,51.54
2019-05-09T09:55:18.479Z,49.15
2019-05-09T09:56:18.181Z,48.70
2019-05-09T09:57:18.998Z,47.31
2019-05-09T09:58:19.063Z,44.82
2019-05-09T09:59:18.867Z,41.69
2019-05-09T10:00:18.089Z,43.59
2019-05-09T10:01:18.063Z,45.06
2019-05-09T10:02:16.425Z,45.66
2019-05-09T10:03:18.619Z,45.51
2019-05-09T10:04:23.569Z,43.95
2019-05-09T10:05:18.409Z,42.25
2019-05-09T10:06:16.380Z,45.38
2019-05-09T10:07:18.851Z,47.61
2019-05-09T10:08:18.131Z,44.43
2019-05-09T10:09:17.463Z,41.39
2019-05-09T10:10:18.428Z,41.67
2019-05-09T10:11:17.977Z,42.73
2019-05-09T10:12:18.165Z,43.62
2019-05-09T10:13:18.436Z,45.54
2019-05-09T10:14:18.503Z,43.77
2019-05-09T10:15:18.755Z,41.71
2019-05-09T10:16:26.604Z,43.87
2019-05-09T10:17:17.995Z,45.34
2019-05-09T10:18:18.246Z,49.13
2019-05-09T10:19:18.408Z,47.03
2019-05-09T10:20:18.195Z,48.10
2019-05-09T10:21:16.214Z,47.85
2019-05-09T10:22:23.458Z,49.10
2019-05-09T10:23:18.974Z,50.17
2019-05-09T10:24:17.515Z,51.31
2019-05-09T10:25:18.290Z,49.48
2019-05-09T10:26:17.797Z,49.73
2019-05-09T10:27:18.540Z,47.58
2019-05-09T10:28:21.325Z,47.34
2019-05-09T10:29:17.786Z,46.95
2019-05-09T10:30:18.035Z,46.42
2019-05-09T10:31:16.105Z,43.71
2019-05-09T10:32:18.174Z,42.33
2019-05-09T10:33:17.540Z,40.00
2019-05-09T10:34:17.731Z,38.78
2019-05-09T10:35:17.741Z,42.38
2019-05-09T10:36:16.045Z,44.64
2019-05-09T10:37:18.343Z,42.35
2019-05-09T10:38:18.086Z,41.85
2019-05-09T10:39:18.594Z,41.99
2019-05-09T10:40:16.004Z,39.80
2019-05-09T10:41:16.052Z,40.95
2019-05-09T10:42:18.637Z,42.03
2019-05-09T10:43:30.712Z,42.77
2019-05-09T10:44:18.027Z,45.54
2019-05-09T10:45:18.022Z,43.73
2019-05-09T10:46:19.096Z,41.09
2019-05-09T10:47:15.990Z,41.47
2019-05-09T10:48:15.930Z,39.70
2019-05-09T10:49:15.904Z,43.53
2019-05-09T10:50:18.378Z,42.81
2019-05-09T10:51:15.885Z,40.66
2019-05-09T10:52:17.999Z,41.25
2019-05-09T10:53:18.010Z,40.44
2019-05-09T10:54:18.366Z,40.68
2019-05-09T10:55:17.942Z,39.86
2019-05-09T10:56:18.394Z,41.44
2019-05-09T10:57:15.816Z,42.95
2019-05-09T10:58:15.811Z,39.46
2019-05-09T10:59:17.657Z,41.31
2019-05-09T11:00:18.284Z,38.78
2019-05-09T11:01:18.210Z,37.47
2019-05-09T11:02:17.518Z,39.82
2019-05-09T11:03:17.988Z,40.99
2019-05-09T11:04:17.877Z,43.16
2019-05-09T11:05:18.270Z,43.80
2019-05-09T11:06:18.001Z,44.62
2019-05-09T11:07:18.100Z,43.92
2019-05-09T11:08:18.338Z,43.93
2019-05-09T11:09:18.027Z,42.49
2019-05-09T11:10:25.959Z,43.84
2019-05-09T11:11:18.377Z,43.63
2019-05-09T11:12:17.885Z,42.82
2019-05-09T11:13:18.021Z,41.44
2019-05-09T11:14:29.671Z,41.52
2019-05-09T11:15:17.761Z,41.14
2019-05-09T11:16:18.037Z,45.43
2019-05-09T11:17:20.893Z,45.28
2019-05-09T11:18:18.544Z,45.72
2019-05-09T11:19:18.163Z,46.25
2019-05-09T11:20:15.563Z,45.99
2019-05-09T11:21:15.574Z,46.69
2019-05-09T11:22:18.162Z,47.62
2019-05-09T11:23:15.602Z,46.87
2019-05-09T11:24:15.531Z,47.39
2019-05-09T11:25:15.510Z,46.29
2019-05-09T11:26:17.684Z,45.49
2019-05-09T11:27:15.500Z,44.46
2019-05-09T11:28:17.874Z,44.64
2019-05-09T11:29:15.525Z,45.39
2019-05-09T11:30:17.531Z,46.84
2019-05-09T11:31:18.045Z,47.64
2019-05-09T11:32:17.762Z,45.53
2019-05-09T11:33:15.420Z,44.99
2019-05-09T11:34:15.407Z,44.06
2019-05-09T11:35:17.575Z,45.65
2019-05-09T11:36:20.837Z,43.77
2019-05-09T11:37:16.377Z,41.19
2019-05-09T11:38:29.437Z,41.43
2019-05-09T11:39:34.912Z,42.85
2019-05-09T11:40:16.401Z,42.96
2019-05-09T11:41:18.825Z,41.66
2019-05-09T11:42:17.697Z,43.82
2019-05-09T11:43:17.952Z,43.02
2019-05-09T11:44:15.299Z,45.99
2019-05-09T11:45:17.740Z,44.10
2019-05-09T11:46:17.720Z,41.09
2019-05-09T11:47:31.450Z,40.30
2019-05-09T11:48:18.539Z,37.65
2019-05-09T11:49:17.857Z,40.12
2019-05-09T11:50:15.228Z,39.44
2019-05-09T11:51:18.244Z,39.50
2019-05-09T11:52:18.342Z,42.44
2019-05-09T11:53:17.541Z,45.63
2019-05-09T11:54:17.210Z,46.54
2019-05-09T11:55:28.485Z,46.78
2019-05-09T11:56:17.938Z,46.12
2019-05-09T11:57:15.150Z,47.81
2019-05-09T11:58:15.208Z,49.60
2019-05-09T11:59:15.130Z,48.24
2019-05-09T12:00:15.124Z,50.68
2019-05-09T12:01:15.107Z,51.06
2019-05-09T12:02:15.099Z,47.79
2019-05-09T12:03:15.084Z,47.77
2019-05-09T12:04:15.141Z,45.63
2019-05-09T12:05:15.072Z,48.17
2019-05-09T12:06:16.176Z,48.39
2019-05-09T12:07:17.667Z,49.82
2019-05-09T12:08:17.574Z,50.23
2019-05-09T12:09:15.126Z,50.31
2019-05-09T12:10:15.086Z,50.58
2019-05-09T12:11:17.856Z,49.70
2019-05-09T12:12:14.984Z,45.86
2019-05-09T12:13:14.971Z,48.17
2019-05-09T12:14:14.962Z,49.40
2019-05-09T12:15:14.959Z,47.77
2019-05-09T12:16:15.005Z,46.34
2019-05-09T12:17:14.927Z,46.66
2019-05-09T12:18:14.914Z,47.46
2019-05-09T12:19:14.902Z,47.89
2019-05-09T12:20:14.897Z,47.51
2019-05-09T12:21:14.879Z,48.21
2019-05-09T12:22:14.932Z,50.71
2019-05-09T12:23:14.857Z,46.50
2019-05-09T12:24:14.845Z,47.79
2019-05-09T12:25:14.834Z,47.99
2019-05-09T12:26:14.824Z,48.49
2019-05-09T12:27:14.813Z,47.69
2019-05-09T12:28:14.872Z,47.59
2019-05-09T12:29:14.795Z,47.79
2019-05-09T12:30:14.804Z,47.69
2019-05-09T12:31:14.769Z,47.77
2019-05-09T12:32:14.760Z,45.72
2019-05-09T12:33:14.747Z,46.57
2019-05-09T12:34:14.807Z,46.92
2019-05-09T12:35:14.725Z,46.06
2019-05-09T12:36:14.721Z,48.57
2019-05-09T12:37:14.705Z,49.27
2019-05-09T12:38:14.692Z,49.07
2019-05-09T12:39:14.679Z,48.61
2019-05-09T12:40:14.748Z,47.33
2019-05-09T12:41:14.657Z,48.29
2019-05-09T12:42:14.671Z,51.21
2019-05-09T12:43:14.634Z,49.60
2019-05-09T12:44:14.622Z,50.31
2019-05-09T12:45:14.611Z,50.13
2019-05-09T12:46:14.670Z,49.73
2019-05-09T12:47:14.588Z,50.02
2019-05-09T12:48:15.842Z,48.82
2019-05-09T12:49:14.567Z,48.84
2019-05-09T12:50:14.554Z,51.26
2019-05-09T12:51:14.543Z,52.26
2019-05-09T12:52:14.601Z,51.66
2019-05-09T12:53:14.520Z,51.16
2019-05-09T12:54:14.511Z,50.96